2022-05-18: The BC COVID modelling group believes we're at the peak of the 6th wave. I am feeling more optimistic!
temperature
    1     16.70  2022 07 06 21 54   48.46990  236.68100     5
    3     16.80  2022 07 06 21 54   48.47760  236.58299     1
    4     16.30  2022 07 06 21 54   48.44080  236.66100     1
    5     16.30  2022 07 06 21 54   48.46600  236.66299     1
    7     16.70  2022 07 06 21 54   48.46550  236.67900     1
    9     17.40  2022 07 06 21 54   48.46510  236.70000     1
   11     12.90  2022 07 06 21 54   48.41690  236.62000     1
   12     15.40  2022 07 06 21 54   48.43460  236.61200     1
   14     15.70  2022 07 06 21 54   48.43590  236.68900     1
   15     14.30  2022 07 06 21 54   48.41530  236.65199     1
   18     16.10  2022 07 06 21 54   48.48650  236.67599     1
   19     14.60  2022 07 06 21 54   48.41820  236.68600     1
   20     16.40  2022 07 06 21 54   48.47880  236.63499     1
   21     16.40  2022 07 06 21 54   48.47440  236.61900     1
   22     15.60  2022 07 06 21 54   48.45340  236.64101     1
   25     16.40  2022 07 06 21 54   48.44510  236.67200     1
   26     16.10  2022 07 06 21 54   48.45620  236.66200     1
   29     16.50  2022 07 06 21 54   48.43290  236.64900     1
   39     18.00  2022 07 06 21 54   48.46550  236.49400     3
   41     14.40  2022 07 06 21 54   48.42810  236.63400     2
   42     17.90  2022 07 06 21 54   48.56210  236.53400     2
   55     17.70  2022 07 06 21 54   48.44880  236.51401     3
   57     17.40  2022 07 06 21 54   48.42180  236.50500     3
   60     16.80  2022 07 06 21 54   48.43820  236.60400     1
   71     15.60  2022 07 06 21 54   48.53760  236.49899    11
   72     12.00  2022 07 06 21 54   48.29838  236.46838     5
   73     17.00  2022 07 06 21 54   48.45370  236.57899     1
   74     15.40  2022 07 06 21 54   48.44560  236.63901     1
   75     15.00  2022 07 06 21 54   48.42350  236.65300     1
   77     17.10  2022 07 06 21 54   48.46690  236.60800     1
   80     16.30  2022 07 06 21 54   48.48210  236.67000     1
   81     17.00  2022 07 06 21 54   48.46970  236.65500     1
   82     16.40  2022 07 06 21 54   48.46080  236.60699     1
   89     17.40  2022 07 06 21 54   49.31120  235.67300    21
   93     16.90  2022 07 06 21 54   48.65380  236.37601    14
   96     16.10  2022 07 06 21 54   49.44590  235.30099    21
   98     14.50  2022 07 06 21 54   48.41610  236.67000     1
   99     17.70  2022 07 06 21 54   48.51100  236.53600    11
  100     17.10  2022 07 06 21 54   48.48110  236.48700    11
  101     15.70  2022 07 06 21 54   48.51010  236.47600    11
  104     17.10  2022 07 06 21 54   48.42810  236.47099     3
  107     18.60  2022 07 06 21 54   48.46610  236.50400     3
  112     17.40  2022 07 06 21 54   48.79430  236.82700    40
  115     15.20  2022 07 06 21 54   48.43210  236.59801     5
  119     17.50  2022 07 06 21 54   48.90720  236.46100    40
  122     16.20  2022 07 06 21 54   48.85030  236.49400    40
  125     16.40  2022 07 06 21 54   48.43350  236.67599     5
  132     16.10  2022 07 06 21 54   48.61540  236.36900    14
  133     17.10  2022 07 06 21 54   48.65230  236.34900    10
  139     16.90  2022 07 06 21 54   49.23280  236.03200    20
  143     17.20  2022 07 06 21 54   48.46230  236.69099     5
  162     16.30  2022 07 06 21 54   48.45240  236.67101     5
  163     16.60  2022 07 06 21 54   48.46480  236.68600     5
  166     15.70  2022 07 06 21 54   49.22710  235.20799    60
  178     21.70  2022 07 06 21 54   64.06090  225.57001    81
  182     17.40  2022 07 06 21 54   49.20990  236.04500    23
  190     17.40  2022 07 06 21 54   49.68220  235.00101    30
  191     16.00  2022 07 06 21 54   49.62120  234.96700    30
  199     13.10  2022 07 06 21 54   48.39510  236.69501     5
  200     16.20  2022 07 06 21 54   48.48800  236.67300     5
  205     17.30  2022 07 06 21 54   49.96700  234.78400    35
  207     16.60  2022 07 06 21 54   49.98010  234.75500    35
  210     16.60  2022 07 06 21 54   50.02080  234.75400    35
  211     16.20  2022 07 06 21 54   50.05990  235.01700    35
  215     16.80  2022 07 06 21 54   48.46180  236.59500     5
  216     19.40  2022 07 06 21 54   49.17440  237.15300    80
  217     16.30  2022 07 06 21 54   48.45190  236.70399     5
  227     17.10  2022 07 06 21 54   48.52524  236.61111     5
  228     15.10  2022 07 06 21 54   48.43951  236.62003     5
  234     17.30  2022 07 06 21 54   48.88760  236.62149    45
  235     16.50  2022 07 06 21 54   48.92833  236.53203    45
  236     16.60  2022 07 06 21 54   48.90087  236.65764    45
  237     16.70  2022 07 06 21 54   48.96380  236.44890    45
  238     16.80  2022 07 06 21 54   48.88512  236.64799    45
  273     14.20  2022 07 06 21 54   48.70929  236.58862    40
humidity
    1     82.00  2022 07 06 21 54   48.46990  236.68100     5
    3     84.00  2022 07 06 21 54   48.47760  236.58299     1
    4     81.00  2022 07 06 21 54   48.44080  236.66100     1
    5     84.00  2022 07 06 21 54   48.46600  236.66299     1
    7     87.00  2022 07 06 21 54   48.46550  236.67900     1
    9     79.00  2022 07 06 21 54   48.46510  236.70000     1
   11     89.00  2022 07 06 21 54   48.41690  236.62000     1
   12     93.00  2022 07 06 21 54   48.43460  236.61200     1
   14     85.00  2022 07 06 21 54   48.43590  236.68900     1
   15     92.00  2022 07 06 21 54   48.41530  236.65199     1
   18     85.00  2022 07 06 21 54   48.48650  236.67599     1
   20     85.00  2022 07 06 21 54   48.47880  236.63499     1
   21     88.00  2022 07 06 21 54   48.47440  236.61900     1
   22     89.00  2022 07 06 21 54   48.45340  236.64101     1
   25     88.00  2022 07 06 21 54   48.44510  236.67200     1
   26     90.00  2022 07 06 21 54   48.45620  236.66200     1
   29     86.00  2022 07 06 21 54   48.43290  236.64900     1
   39     84.00  2022 07 06 21 54   48.46550  236.49400     3
   41     91.00  2022 07 06 21 54   48.42810  236.63400     2
   42     88.00  2022 07 06 21 54   48.56210  236.53400     2
   57     82.00  2022 07 06 21 54   48.42180  236.50500     3
   72    100.00  2022 07 06 21 54   48.29838  236.46838     5
   73     88.00  2022 07 06 21 54   48.45370  236.57899     1
   74     88.00  2022 07 06 21 54   48.44560  236.63901     1
   75     91.00  2022 07 06 21 54   48.42350  236.65300     1
   77     82.00  2022 07 06 21 54   48.46690  236.60800     1
   80     94.00  2022 07 06 21 54   48.48210  236.67000     1
   82     86.00  2022 07 06 21 54   48.46080  236.60699     1
   89     81.00  2022 07 06 21 54   49.31120  235.67300    21
   93     73.00  2022 07 06 21 54   48.65380  236.37601    14
   96     85.00  2022 07 06 21 54   49.44590  235.30099    21
   98     87.00  2022 07 06 21 54   48.41610  236.67000     1
   99      1.00  2022 07 06 21 54   48.51100  236.53600    11
  100     92.00  2022 07 06 21 54   48.48110  236.48700    11
  101     92.00  2022 07 06 21 54   48.51010  236.47600    11
  104      0.00  2022 07 06 21 54   48.42810  236.47099     3
  107     69.00  2022 07 06 21 54   48.46610  236.50400     3
  112      0.00  2022 07 06 21 54   48.79430  236.82700    40
  122      0.00  2022 07 06 21 54   48.85030  236.49400    40
  125     87.00  2022 07 06 21 54   48.43350  236.67599     5
  132     98.00  2022 07 06 21 54   48.61540  236.36900    14
  133     94.00  2022 07 06 21 54   48.65230  236.34900    10
  139     92.00  2022 07 06 21 54   49.23280  236.03200    20
  143     80.00  2022 07 06 21 54   48.46230  236.69099     5
  162     88.00  2022 07 06 21 54   48.45240  236.67101     5
  163     88.00  2022 07 06 21 54   48.46480  236.68600     5
  166      0.00  2022 07 06 21 54   49.22710  235.20799    60
  178     76.00  2022 07 06 21 54   64.06090  225.57001    81
  182     92.00  2022 07 06 21 54   49.20990  236.04500    23
  190     87.00  2022 07 06 21 54   49.68220  235.00101    30
  191     93.00  2022 07 06 21 54   49.62120  234.96700    30
  199     78.00  2022 07 06 21 54   48.39510  236.69501     5
  200     91.00  2022 07 06 21 54   48.48800  236.67300     5
  205     71.00  2022 07 06 21 54   49.96700  234.78400    35
  207     70.00  2022 07 06 21 54   49.98010  234.75500    35
  210     91.00  2022 07 06 21 54   50.02080  234.75400    35
  211     87.00  2022 07 06 21 54   50.05990  235.01700    35
  215     86.00  2022 07 06 21 54   48.46180  236.59500     5
  216     74.00  2022 07 06 21 54   49.17440  237.15300    80
  217     83.00  2022 07 06 21 54   48.45190  236.70399     5
  227     89.00  2022 07 06 21 54   48.52524  236.61111     5
  228     91.00  2022 07 06 21 54   48.43951  236.62003     5
  234     91.00  2022 07 06 21 54   48.88760  236.62149    45
  235     70.00  2022 07 06 21 54   48.92833  236.53203    45
  236     88.00  2022 07 06 21 54   48.90087  236.65764    45
  237     64.00  2022 07 06 21 54   48.96380  236.44890    45
  273     89.00  2022 07 06 21 54   48.70929  236.58862    40
wind
    1      0.40  2022 07 06 21 54   48.46990  236.68100     5
    3      0.00  2022 07 06 21 54   48.47760  236.58299     1
    4      0.00  2022 07 06 21 54   48.44080  236.66100     1
    5      0.00  2022 07 06 21 54   48.46600  236.66299     1
    7      0.00  2022 07 06 21 54   48.46550  236.67900     1
    9      0.00  2022 07 06 21 54   48.46510  236.70000     1
   10      1.10  2022 07 06 21 54   48.42530  236.59500     1
   11      0.00  2022 07 06 21 54   48.41690  236.62000     1
   12      0.00  2022 07 06 21 54   48.43460  236.61200     1
   14      0.00  2022 07 06 21 54   48.43590  236.68900     1
   15      1.40  2022 07 06 21 54   48.41530  236.65199     1
   18      0.00  2022 07 06 21 54   48.48650  236.67599     1
   19      0.00  2022 07 06 21 54   48.41820  236.68600     1
   20      0.00  2022 07 06 21 54   48.47880  236.63499     1
   21      0.00  2022 07 06 21 54   48.47440  236.61900     1
   22      0.00  2022 07 06 21 54   48.45340  236.64101     1
   25      0.20  2022 07 06 21 54   48.44510  236.67200     1
   26      0.00  2022 07 06 21 54   48.45620  236.66200     1
   29      1.50  2022 07 06 21 54   48.43290  236.64900     1
   39      0.00  2022 07 06 21 54   48.46550  236.49400     3
   41      2.80  2022 07 06 21 54   48.42810  236.63400     2
   42      0.00  2022 07 06 21 54   48.56210  236.53400     2
   55      0.00  2022 07 06 21 54   48.44880  236.51401     3
   57      0.00  2022 07 06 21 54   48.42180  236.50500     3
   60      1.10  2022 07 06 21 54   48.43820  236.60400     1
   71      0.00  2022 07 06 21 54   48.53760  236.49899    11
   72      4.70  2022 07 06 21 54   48.29838  236.46838     5
   73      1.90  2022 07 06 21 54   48.45370  236.57899     1
   74      0.00  2022 07 06 21 54   48.44560  236.63901     1
   75      1.10  2022 07 06 21 54   48.42350  236.65300     1
   77      0.10  2022 07 06 21 54   48.46690  236.60800     1
   80      0.00  2022 07 06 21 54   48.48210  236.67000     1
   81      0.00  2022 07 06 21 54   48.46970  236.65500     1
   82      0.00  2022 07 06 21 54   48.46080  236.60699     1
   89      0.00  2022 07 06 21 54   49.31120  235.67300    21
   93      0.00  2022 07 06 21 54   48.65380  236.37601    14
   96      0.00  2022 07 06 21 54   49.44590  235.30099    21
   98      0.10  2022 07 06 21 54   48.41610  236.67000     1
   99      0.00  2022 07 06 21 54   48.51100  236.53600    11
  100      0.00  2022 07 06 21 54   48.48110  236.48700    11
  101      0.00  2022 07 06 21 54   48.51010  236.47600    11
  104      0.00  2022 07 06 21 54   48.42810  236.47099     3
  110      0.00  2022 07 06 21 54   49.27380  235.80901    21
  112      0.00  2022 07 06 21 54   48.79430  236.82700    40
  115      0.70  2022 07 06 21 54   48.43210  236.59801     5
  119      0.00  2022 07 06 21 54   48.90720  236.46100    40
  122      0.00  2022 07 06 21 54   48.85030  236.49400    40
  125      0.00  2022 07 06 21 54   48.43350  236.67599     5
  132      0.00  2022 07 06 21 54   48.61540  236.36900    14
  133      0.00  2022 07 06 21 54   48.65230  236.34900    10
  139      0.00  2022 07 06 21 54   49.23280  236.03200    20
  143      0.00  2022 07 06 21 54   48.46230  236.69099     5
  162      0.00  2022 07 06 21 54   48.45240  236.67101     5
  163      1.40  2022 07 06 21 54   48.46480  236.68600     5
  165      0.00  2022 07 06 21 54   49.26100  235.19299    60
  166      0.00  2022 07 06 21 54   49.22710  235.20799    60
  178      0.00  2022 07 06 21 54   64.06090  225.57001    81
  182      0.00  2022 07 06 21 54   49.20990  236.04500    23
  189      0.00  2022 07 06 21 54   49.70950  235.08600    30
  190      0.00  2022 07 06 21 54   49.68220  235.00101    30
  191      0.00  2022 07 06 21 54   49.62120  234.96700    30
  199      8.90  2022 07 06 21 54   48.39510  236.69501     5
  200      0.00  2022 07 06 21 54   48.48800  236.67300     5
  205      0.00  2022 07 06 21 54   49.96700  234.78400    35
  206      0.00  2022 07 06 21 54   49.97270  234.76100    35
  207      0.00  2022 07 06 21 54   49.98010  234.75500    35
  208      0.00  2022 07 06 21 54   50.02360  234.72600    35
  210      0.00  2022 07 06 21 54   50.02080  234.75400    35
  211      0.00  2022 07 06 21 54   50.05990  235.01700    35
  215      0.00  2022 07 06 21 54   48.46180  236.59500     5
  216      0.00  2022 07 06 21 54   49.17440  237.15300    80
  217      1.20  2022 07 06 21 54   48.45190  236.70399     5
  227      0.30  2022 07 06 21 54   48.52524  236.61111     5
  228      1.70  2022 07 06 21 54   48.43951  236.62003     5
  234      0.00  2022 07 06 21 54   48.88760  236.62149    45
  235      0.00  2022 07 06 21 54   48.92833  236.53203    45
  236      0.00  2022 07 06 21 54   48.90087  236.65764    45
  237      0.00  2022 07 06 21 54   48.96380  236.44890    45
  238      0.00  2022 07 06 21 54   48.88512  236.64799    45
  273      0.00  2022 07 06 21 54   48.70929  236.58862    40
winddir
    1    234.00  2022 07 06 21 54   48.46990  236.68100     5
    3    249.00  2022 07 06 21 54   48.47760  236.58299     1
    4    234.00  2022 07 06 21 54   48.44080  236.66100     1
    5    170.00  2022 07 06 21 54   48.46600  236.66299     1
    7    180.00  2022 07 06 21 54   48.46550  236.67900     1
    9    219.00  2022 07 06 21 54   48.46510  236.70000     1
   10    202.00  2022 07 06 21 54   48.42530  236.59500     1
   11    153.00  2022 07 06 21 54   48.41690  236.62000     1
   12    200.00  2022 07 06 21 54   48.43460  236.61200     1
   14    232.00  2022 07 06 21 54   48.43590  236.68900     1
   15    219.00  2022 07 06 21 54   48.41530  236.65199     1
   18    243.00  2022 07 06 21 54   48.48650  236.67599     1
   19    223.00  2022 07 06 21 54   48.41820  236.68600     1
   20    154.00  2022 07 06 21 54   48.47880  236.63499     1
   21    143.00  2022 07 06 21 54   48.47440  236.61900     1
   22    360.00  2022 07 06 21 54   48.45340  236.64101     1
   25    210.00  2022 07 06 21 54   48.44510  236.67200     1
   26    244.00  2022 07 06 21 54   48.45620  236.66200     1
   29    238.00  2022 07 06 21 54   48.43290  236.64900     1
   39    192.00  2022 07 06 21 54   48.46550  236.49400     3
   41    226.00  2022 07 06 21 54   48.42810  236.63400     2
   42    342.00  2022 07 06 21 54   48.56210  236.53400     2
   55    269.00  2022 07 06 21 54   48.44880  236.51401     3
   57    282.00  2022 07 06 21 54   48.42180  236.50500     3
   60    188.00  2022 07 06 21 54   48.43820  236.60400     1
   71     51.00  2022 07 06 21 54   48.53760  236.49899    11
   72    225.00  2022 07 06 21 54   48.29838  236.46838     5
   73    203.00  2022 07 06 21 54   48.45370  236.57899     1
   74    185.00  2022 07 06 21 54   48.44560  236.63901     1
   75    192.00  2022 07 06 21 54   48.42350  236.65300     1
   77    200.00  2022 07 06 21 54   48.46690  236.60800     1
   80    260.00  2022 07 06 21 54   48.48210  236.67000     1
   81    360.00  2022 07 06 21 54   48.46970  236.65500     1
   82    192.00  2022 07 06 21 54   48.46080  236.60699     1
   89     96.00  2022 07 06 21 54   49.31120  235.67300    21
   93     70.00  2022 07 06 21 54   48.65380  236.37601    14
   96    287.00  2022 07 06 21 54   49.44590  235.30099    21
   98    224.00  2022 07 06 21 54   48.41610  236.67000     1
   99    210.00  2022 07 06 21 54   48.51100  236.53600    11
  100    200.00  2022 07 06 21 54   48.48110  236.48700    11
  101    355.00  2022 07 06 21 54   48.51010  236.47600    11
  104    360.00  2022 07 06 21 54   48.42810  236.47099     3
  110    317.00  2022 07 06 21 54   49.27380  235.80901    21
  112    297.00  2022 07 06 21 54   48.79430  236.82700    40
  115    360.00  2022 07 06 21 54   48.43210  236.59801     5
  119    360.00  2022 07 06 21 54   48.90720  236.46100    40
  122    150.00  2022 07 06 21 54   48.85030  236.49400    40
  125    220.00  2022 07 06 21 54   48.43350  236.67599     5
  132    261.00  2022 07 06 21 54   48.61540  236.36900    14
  133    318.00  2022 07 06 21 54   48.65230  236.34900    10
  139    257.00  2022 07 06 21 54   49.23280  236.03200    20
  143    275.00  2022 07 06 21 54   48.46230  236.69099     5
  162    223.00  2022 07 06 21 54   48.45240  236.67101     5
  163    205.00  2022 07 06 21 54   48.46480  236.68600     5
  165    155.00  2022 07 06 21 54   49.26100  235.19299    60
  166    360.00  2022 07 06 21 54   49.22710  235.20799    60
  178    135.00  2022 07 06 21 54   64.06090  225.57001    81
  182    255.00  2022 07 06 21 54   49.20990  236.04500    23
  189    104.00  2022 07 06 21 54   49.70950  235.08600    30
  190    192.00  2022 07 06 21 54   49.68220  235.00101    30
  191    355.00  2022 07 06 21 54   49.62120  234.96700    30
  199    238.00  2022 07 06 21 54   48.39510  236.69501     5
  200    212.00  2022 07 06 21 54   48.48800  236.67300     5
  205    337.00  2022 07 06 21 54   49.96700  234.78400    35
  206    336.00  2022 07 06 21 54   49.97270  234.76100    35
  207     48.00  2022 07 06 21 54   49.98010  234.75500    35
  208    293.00  2022 07 06 21 54   50.02360  234.72600    35
  210    301.00  2022 07 06 21 54   50.02080  234.75400    35
  211     59.00  2022 07 06 21 54   50.05990  235.01700    35
  215    122.00  2022 07 06 21 54   48.46180  236.59500     5
  216    326.00  2022 07 06 21 54   49.17440  237.15300    80
  217    188.00  2022 07 06 21 54   48.45190  236.70399     5
  227    182.00  2022 07 06 21 54   48.52524  236.61111     5
  228    211.00  2022 07 06 21 54   48.43951  236.62003     5
  234     84.00  2022 07 06 21 54   48.88760  236.62149    45
  235     74.00  2022 07 06 21 54   48.92833  236.53203    45
  236    219.00  2022 07 06 21 54   48.90087  236.65764    45
  237     49.00  2022 07 06 21 54   48.96380  236.44890    45
  238     84.00  2022 07 06 21 54   48.88512  236.64799    45
  273     86.00  2022 07 06 21 54   48.70929  236.58862    40
solar
    1      0.00  2022 07 06 21 54   48.46990  236.68100     5
    3      0.00  2022 07 06 21 54   48.47760  236.58299     1
    4      0.00  2022 07 06 21 54   48.44080  236.66100     1
    5      0.00  2022 07 06 21 54   48.46600  236.66299     1
    7      0.00  2022 07 06 21 54   48.46550  236.67900     1
    9      0.00  2022 07 06 21 54   48.46510  236.70000     1
   10      0.00  2022 07 06 21 54   48.42530  236.59500     1
   11      0.00  2022 07 06 21 54   48.41690  236.62000     1
   12      0.00  2022 07 06 21 54   48.43460  236.61200     1
   14      0.00  2022 07 06 21 54   48.43590  236.68900     1
   15      0.00  2022 07 06 21 54   48.41530  236.65199     1
   18      0.00  2022 07 06 21 54   48.48650  236.67599     1
   19      0.00  2022 07 06 21 54   48.41820  236.68600     1
   20      0.00  2022 07 06 21 54   48.47880  236.63499     1
   21      0.00  2022 07 06 21 54   48.47440  236.61900     1
   22      0.00  2022 07 06 21 54   48.45340  236.64101     1
   25      0.00  2022 07 06 21 54   48.44510  236.67200     1
   26      0.00  2022 07 06 21 54   48.45620  236.66200     1
   29      0.00  2022 07 06 21 54   48.43290  236.64900     1
   39      0.00  2022 07 06 21 54   48.46550  236.49400     3
   42      0.00  2022 07 06 21 54   48.56210  236.53400     2
   55      0.00  2022 07 06 21 54   48.44880  236.51401     3
   57      0.00  2022 07 06 21 54   48.42180  236.50500     3
   60      0.00  2022 07 06 21 54   48.43820  236.60400     1
   71      0.00  2022 07 06 21 54   48.53760  236.49899    11
   72      5.00  2022 07 06 21 54   48.29838  236.46838     5
   73      0.00  2022 07 06 21 54   48.45370  236.57899     1
   74      0.00  2022 07 06 21 54   48.44560  236.63901     1
   75      0.00  2022 07 06 21 54   48.42350  236.65300     1
   77      0.00  2022 07 06 21 54   48.46690  236.60800     1
   80      0.00  2022 07 06 21 54   48.48210  236.67000     1
   81      0.00  2022 07 06 21 54   48.46970  236.65500     1
   82      0.00  2022 07 06 21 54   48.46080  236.60699     1
   89      0.00  2022 07 06 21 54   49.31120  235.67300    21
   93      0.00  2022 07 06 21 54   48.65380  236.37601    14
   96      0.00  2022 07 06 21 54   49.44590  235.30099    21
   98      0.00  2022 07 06 21 54   48.41610  236.67000     1
   99      0.00  2022 07 06 21 54   48.51100  236.53600    11
  100      0.00  2022 07 06 21 54   48.48110  236.48700    11
  101      0.00  2022 07 06 21 54   48.51010  236.47600    11
  104      0.00  2022 07 06 21 54   48.42810  236.47099     3
  107      0.00  2022 07 06 21 54   48.46610  236.50400     3
  110      0.00  2022 07 06 21 54   49.27380  235.80901    21
  112      0.00  2022 07 06 21 54   48.79430  236.82700    40
  115      0.00  2022 07 06 21 54   48.43210  236.59801     5
  119      0.00  2022 07 06 21 54   48.90720  236.46100    40
  122      0.00  2022 07 06 21 54   48.85030  236.49400    40
  125      0.00  2022 07 06 21 54   48.43350  236.67599     5
  132      0.00  2022 07 06 21 54   48.61540  236.36900    14
  133      0.00  2022 07 06 21 54   48.65230  236.34900    10
  139      0.00  2022 07 06 21 54   49.23280  236.03200    20
  143      0.00  2022 07 06 21 54   48.46230  236.69099     5
  162      0.00  2022 07 06 21 54   48.45240  236.67101     5
  163      0.00  2022 07 06 21 54   48.46480  236.68600     5
  165      0.00  2022 07 06 21 54   49.26100  235.19299    60
  166      0.00  2022 07 06 21 54   49.22710  235.20799    60
  178     42.00  2022 07 06 21 54   64.06090  225.57001    81
  182      0.00  2022 07 06 21 54   49.20990  236.04500    23
  189      0.00  2022 07 06 21 54   49.70950  235.08600    30
  190      0.00  2022 07 06 21 54   49.68220  235.00101    30
  191      0.00  2022 07 06 21 54   49.62120  234.96700    30
  199      0.00  2022 07 06 21 54   48.39510  236.69501     5
  200      0.00  2022 07 06 21 54   48.48800  236.67300     5
  205      0.00  2022 07 06 21 54   49.96700  234.78400    35
  206      0.00  2022 07 06 21 54   49.97270  234.76100    35
  207      0.00  2022 07 06 21 54   49.98010  234.75500    35
  208      0.00  2022 07 06 21 54   50.02360  234.72600    35
  210      0.00  2022 07 06 21 54   50.02080  234.75400    35
  211      0.00  2022 07 06 21 54   50.05990  235.01700    35
  215      0.00  2022 07 06 21 54   48.46180  236.59500     5
  216      0.00  2022 07 06 21 54   49.17440  237.15300    80
  217      0.00  2022 07 06 21 54   48.45190  236.70399     5
  227      0.00  2022 07 06 21 54   48.52524  236.61111     5
  228      0.00  2022 07 06 21 54   48.43951  236.62003     5
  234      0.00  2022 07 06 21 54   48.88760  236.62149    45
  235      0.00  2022 07 06 21 54   48.92833  236.53203    45
  236      0.00  2022 07 06 21 54   48.90087  236.65764    45
  273      0.00  2022 07 06 21 54   48.70929  236.58862    40
uv
    3      0.00  2022 07 06 21 54   48.47760  236.58299     1
    4      0.00  2022 07 06 21 54   48.44080  236.66100     1
    5      0.00  2022 07 06 21 54   48.46600  236.66299     1
    7      0.00  2022 07 06 21 54   48.46550  236.67900     1
    9      0.00  2022 07 06 21 54   48.46510  236.70000     1
   10      0.00  2022 07 06 21 54   48.42530  236.59500     1
   11      0.00  2022 07 06 21 54   48.41690  236.62000     1
   12      0.00  2022 07 06 21 54   48.43460  236.61200     1
   14      0.00  2022 07 06 21 54   48.43590  236.68900     1
   15      0.00  2022 07 06 21 54   48.41530  236.65199     1
   18      0.00  2022 07 06 21 54   48.48650  236.67599     1
   19      0.00  2022 07 06 21 54   48.41820  236.68600     1
   20      0.00  2022 07 06 21 54   48.47880  236.63499     1
   21      0.00  2022 07 06 21 54   48.47440  236.61900     1
   22      0.00  2022 07 06 21 54   48.45340  236.64101     1
   25      0.00  2022 07 06 21 54   48.44510  236.67200     1
   26      0.00  2022 07 06 21 54   48.45620  236.66200     1
   29      0.00  2022 07 06 21 54   48.43290  236.64900     1
   39      0.00  2022 07 06 21 54   48.46550  236.49400     3
   42      0.00  2022 07 06 21 54   48.56210  236.53400     2
   55      0.00  2022 07 06 21 54   48.44880  236.51401     3
   60      0.00  2022 07 06 21 54   48.43820  236.60400     1
   71      0.00  2022 07 06 21 54   48.53760  236.49899    11
   72      0.00  2022 07 06 21 54   48.29838  236.46838     5
   73      0.00  2022 07 06 21 54   48.45370  236.57899     1
   74      0.00  2022 07 06 21 54   48.44560  236.63901     1
   75      0.00  2022 07 06 21 54   48.42350  236.65300     1
   77      0.00  2022 07 06 21 54   48.46690  236.60800     1
   80      0.00  2022 07 06 21 54   48.48210  236.67000     1
   81      0.00  2022 07 06 21 54   48.46970  236.65500     1
   82      0.00  2022 07 06 21 54   48.46080  236.60699     1
   89      0.00  2022 07 06 21 54   49.31120  235.67300    21
   93      0.00  2022 07 06 21 54   48.65380  236.37601    14
   96      0.00  2022 07 06 21 54   49.44590  235.30099    21
   98      0.00  2022 07 06 21 54   48.41610  236.67000     1
   99      0.00  2022 07 06 21 54   48.51100  236.53600    11
  101      0.00  2022 07 06 21 54   48.51010  236.47600    11
  104      0.00  2022 07 06 21 54   48.42810  236.47099     3
  110      0.00  2022 07 06 21 54   49.27380  235.80901    21
  112      0.00  2022 07 06 21 54   48.79430  236.82700    40
  115      0.00  2022 07 06 21 54   48.43210  236.59801     5
  119      0.00  2022 07 06 21 54   48.90720  236.46100    40
  122      0.00  2022 07 06 21 54   48.85030  236.49400    40
  125      0.00  2022 07 06 21 54   48.43350  236.67599     5
  132      0.00  2022 07 06 21 54   48.61540  236.36900    14
  139      0.00  2022 07 06 21 54   49.23280  236.03200    20
  143      0.00  2022 07 06 21 54   48.46230  236.69099     5
  162      0.00  2022 07 06 21 54   48.45240  236.67101     5
  163      0.00  2022 07 06 21 54   48.46480  236.68600     5
  165      0.00  2022 07 06 21 54   49.26100  235.19299    60
  166      0.00  2022 07 06 21 54   49.22710  235.20799    60
  182      0.00  2022 07 06 21 54   49.20990  236.04500    23
  189      0.00  2022 07 06 21 54   49.70950  235.08600    30
  190      0.00  2022 07 06 21 54   49.68220  235.00101    30
  191      0.00  2022 07 06 21 54   49.62120  234.96700    30
  199      0.00  2022 07 06 21 54   48.39510  236.69501     5
  200      0.00  2022 07 06 21 54   48.48800  236.67300     5
  205      0.00  2022 07 06 21 54   49.96700  234.78400    35
  206      0.00  2022 07 06 21 54   49.97270  234.76100    35
  207      0.00  2022 07 06 21 54   49.98010  234.75500    35
  208      0.00  2022 07 06 21 54   50.02360  234.72600    35
  210      0.00  2022 07 06 21 54   50.02080  234.75400    35
  211      0.00  2022 07 06 21 54   50.05990  235.01700    35
  215      0.00  2022 07 06 21 54   48.46180  236.59500     5
  217      0.00  2022 07 06 21 54   48.45190  236.70399     5
  227      0.00  2022 07 06 21 54   48.52524  236.61111     5
  228      0.00  2022 07 06 21 54   48.43951  236.62003     5
  234      0.00  2022 07 06 21 54   48.88760  236.62149    45
  235      0.00  2022 07 06 21 54   48.92833  236.53203    45
  236      0.00  2022 07 06 21 54   48.90087  236.65764    45
  273      0.00  2022 07 06 21 54   48.70929  236.58862    40
raintotal
    1      0.00  2022 07 06 21 54   48.46990  236.68100     5
    3      0.00  2022 07 06 21 54   48.47760  236.58299     1
    4      0.00  2022 07 06 21 54   48.44080  236.66100     1
    5      0.00  2022 07 06 21 54   48.46600  236.66299     1
    7      0.00  2022 07 06 21 54   48.46550  236.67900     1
    9      0.00  2022 07 06 21 54   48.46510  236.70000     1
   10      0.20  2022 07 06 21 54   48.42530  236.59500     1
   11      0.00  2022 07 06 21 54   48.41690  236.62000     1
   12      0.00  2022 07 06 21 54   48.43460  236.61200     1
   14      0.00  2022 07 06 21 54   48.43590  236.68900     1
   15      0.00  2022 07 06 21 54   48.41530  236.65199     1
   18      0.00  2022 07 06 21 54   48.48650  236.67599     1
   19      0.00  2022 07 06 21 54   48.41820  236.68600     1
   20      0.00  2022 07 06 21 54   48.47880  236.63499     1
   21      0.00  2022 07 06 21 54   48.47440  236.61900     1
   22      0.00  2022 07 06 21 54   48.45340  236.64101     1
   25      0.00  2022 07 06 21 54   48.44510  236.67200     1
   26      0.00  2022 07 06 21 54   48.45620  236.66200     1
   29      0.00  2022 07 06 21 54   48.43290  236.64900     1
   31      0.00  2022 07 06 21 54   48.42050  236.51401     3
   39      0.00  2022 07 06 21 54   48.46550  236.49400     3
   42      0.20  2022 07 06 21 54   48.56210  236.53400     2
   55      0.00  2022 07 06 21 54   48.44880  236.51401     3
   60      0.00  2022 07 06 21 54   48.43820  236.60400     1
   62      0.00  2022 07 06 21 54   48.68040  236.54300     4
   68      0.00  2022 07 06 21 54   48.56970  236.54700     4
   71      0.20  2022 07 06 21 54   48.53760  236.49899    11
   72      0.00  2022 07 06 21 54   48.29838  236.46838     5
   73      0.00  2022 07 06 21 54   48.45370  236.57899     1
   74      0.00  2022 07 06 21 54   48.44560  236.63901     1
   75      0.00  2022 07 06 21 54   48.42350  236.65300     1
   77      0.00  2022 07 06 21 54   48.46690  236.60800     1
   79      0.00  2022 07 06 21 54   48.47130  236.69299     1
   80      0.00  2022 07 06 21 54   48.48210  236.67000     1
   81      0.00  2022 07 06 21 54   48.46970  236.65500     1
   82      0.00  2022 07 06 21 54   48.46080  236.60699     1
   85      0.00  2022 07 06 21 54   48.82900  235.94800    10
   89      2.50  2022 07 06 21 54   49.31120  235.67300    21
   93      2.00  2022 07 06 21 54   48.65380  236.37601    14
   96      3.80  2022 07 06 21 54   49.44590  235.30099    21
   98      0.00  2022 07 06 21 54   48.41610  236.67000     1
   99      0.20  2022 07 06 21 54   48.51100  236.53600    11
  100      0.00  2022 07 06 21 54   48.48110  236.48700    11
  101      0.20  2022 07 06 21 54   48.51010  236.47600    11
  104      0.00  2022 07 06 21 54   48.42810  236.47099     3
  107      0.00  2022 07 06 21 54   48.46610  236.50400     3
  110      1.80  2022 07 06 21 54   49.27380  235.80901    21
  112      0.20  2022 07 06 21 54   48.79430  236.82700    40
  115      0.20  2022 07 06 21 54   48.43210  236.59801     5
  119      0.50  2022 07 06 21 54   48.90720  236.46100    40
  120      0.00  2022 07 06 21 54   48.77670  236.55299    40
  122      0.20  2022 07 06 21 54   48.85030  236.49400    40
  125      0.00  2022 07 06 21 54   48.43350  236.67599     5
  132      6.10  2022 07 06 21 54   48.61540  236.36900    14
  133      8.40  2022 07 06 21 54   48.65230  236.34900    10
  139      2.00  2022 07 06 21 54   49.23280  236.03200    20
  143      0.00  2022 07 06 21 54   48.46230  236.69099     5
  160      0.00  2022 07 06 21 54   48.65680  236.35699    14
  162      0.00  2022 07 06 21 54   48.45240  236.67101     5
  163      0.00  2022 07 06 21 54   48.46480  236.68600     5
  165      4.60  2022 07 06 21 54   49.26100  235.19299    60
  166      0.00  2022 07 06 21 54   49.22710  235.20799    60
  178      0.20  2022 07 06 21 54   64.06090  225.57001    81
  182      2.50  2022 07 06 21 54   49.20990  236.04500    23
  189      1.00  2022 07 06 21 54   49.70950  235.08600    30
  190      1.00  2022 07 06 21 54   49.68220  235.00101    30
  191      0.00  2022 07 06 21 54   49.62120  234.96700    30
  199      0.00  2022 07 06 21 54   48.39510  236.69501     5
  200      0.00  2022 07 06 21 54   48.48800  236.67300     5
  205      0.80  2022 07 06 21 54   49.96700  234.78400    35
  206      0.50  2022 07 06 21 54   49.97270  234.76100    35
  207      0.50  2022 07 06 21 54   49.98010  234.75500    35
  208      0.00  2022 07 06 21 54   50.02360  234.72600    35
  210      0.00  2022 07 06 21 54   50.02080  234.75400    35
  211      2.60  2022 07 06 21 54   50.05990  235.01700    35
  212      0.00  2022 07 06 21 54   50.37740  234.04201    35
  215      0.20  2022 07 06 21 54   48.46180  236.59500     5
  216      0.80  2022 07 06 21 54   49.17440  237.15300    80
  217      0.00  2022 07 06 21 54   48.45190  236.70399     5
  218      0.00  2022 07 06 21 54   49.32200  235.65700    21
  227      0.00  2022 07 06 21 54   48.52524  236.61111     5
  228      0.00  2022 07 06 21 54   48.43951  236.62003     5
  234      0.00  2022 07 06 21 54   48.88760  236.62149    45
  235      0.00  2022 07 06 21 54   48.92833  236.53203    45
  236      0.00  2022 07 06 21 54   48.90087  236.65764    45
  237      0.00  2022 07 06 21 54   48.96380  236.44890    45
  238      0.20  2022 07 06 21 54   48.88512  236.64799    45
  273      0.80  2022 07 06 21 54   48.70929  236.58862    40
Error 1055 : Expression #1 of SELECT list is not in GROUP BY clause and contains nonaggregated column 'meteo.sdata.timekey' which is not functionally dependent on columns in GROUP BY clause; this is incompatible with sql_mode=only_full_group_by
NumberStation Name